Weather Melbourne :: Current Conditions and Historical Data

 
Daily Summary for August 01, 2014 Units:  Both    English   Metric
« Previous Day
Next Day »
Daily Weekly Monthly Yearly Custom
  Current: High: Low: Average:
Temperature: 46.4 °F /  8 °C 49.4 °F /  9.7 °C 42.0 °F /  5.6 °C 44.4 °F /  6.9 °C
Dew Point: 39.9 °F /  4.4 °C 40.8 °F /  4.9 °C 36.4 °F /  2.4 °C 37.6 °F /  3.1 °C
Humidity: 78 % 83 % 65 % 77 %
Wind Speed: 11.5 mph /  18.5 km/h 26.5 mph /  42.6 km/h - 12.1 mph /  19.5 km/h
Wind Gust: 11.5 mph /  18.5 km/h 26.5 mph /  42.6 km/h - -
Wind:SW - - West
Pressure: 29.76 in /  1007.7 hPa 29.76 in /  1007.7 hPa 29.57 in /  1001.2 hPa -
Precipitation: 0.02 in /  0.51 mm      
Melbourne, Australia Weather Graphs
 
 
Melbourne, current snapshot. Courtesy of citylink.com.au
Weather Melbourne

Melbourne Weather Radar




Weather in Melbourne, AU
Hourly Data for August 01, 2014
Time Temperature Dew Point Pressure Wind Wind Speed Wind Gust Humidity Rainfall Rate (Hourly) solar Conditions
00:00 45.8 °F /  7.7 °C 36.9 °F /  2.7 °C 29.58 in /  1001.6 hPa NW 5.8 mph /  9.3 km/h 5.8 mph /  9.3 km/h 71 % 0.00 in /  0 mm 0.0 W/m2 CLR
00:05 45.6 °F /  7.6 °C 37.1 °F /  2.8 °C 29.58 in /  1001.6 hPa West 9.2 mph /  14.8 km/h 9.2 mph /  14.8 km/h 72 % 0.00 in /  0 mm 0.0 W/m2 CLR
00:10 45.4 °F /  7.4 °C 37.2 °F /  2.9 °C 29.58 in /  1001.6 hPa NNW 9.0 mph /  14.5 km/h 9.0 mph /  14.5 km/h 73 % 0.00 in /  0 mm 0.0 W/m2 CLR
00:15 45.1 °F /  7.3 °C 37.3 °F /  2.9 °C 29.58 in /  1001.6 hPa NNW 9.2 mph /  14.8 km/h 9.2 mph /  14.8 km/h 74 % 0.00 in /  0 mm 0.0 W/m2 CLR
00:20 44.9 °F /  7.2 °C 37.1 °F /  2.8 °C 29.58 in /  1001.6 hPa NW 9.2 mph /  14.8 km/h 9.2 mph /  14.8 km/h 74 % 0.00 in /  0 mm 0.0 W/m2 CLR
00:25 44.7 °F /  7.1 °C 37.3 °F /  2.9 °C 29.58 in /  1001.6 hPa NNW 8.1 mph /  13 km/h 8.1 mph /  13 km/h 75 % 0.00 in /  0 mm 0.0 W/m2 CLR
00:30 44.5 °F /  6.9 °C 37.1 °F /  2.8 °C 29.58 in /  1001.6 hPa WNW 12.7 mph /  20.4 km/h 12.7 mph /  20.4 km/h 75 % 0.00 in /  0 mm 0.0 W/m2 CLR
00:35 44.4 °F /  6.9 °C 37.3 °F /  2.9 °C 29.58 in /  1001.6 hPa WNW 9.2 mph /  14.8 km/h 9.2 mph /  14.8 km/h 76 % 0.00 in /  0 mm 0.0 W/m2 CLR
00:40 44.3 °F /  6.8 °C 37.2 °F /  2.9 °C 29.58 in /  1001.6 hPa NW 10.4 mph /  16.7 km/h 10.4 mph /  16.7 km/h 76 % 0.00 in /  0 mm 0.0 W/m2 CLR
00:45 44.2 °F /  6.8 °C 37.4 °F /  3 °C 29.58 in /  1001.6 hPa NW 8.0 mph /  12.9 km/h 8.0 mph /  12.9 km/h 77 % 0.00 in /  0 mm 0.0 W/m2 CLR
00:50 44.1 °F /  6.7 °C 37.3 °F /  2.9 °C 29.58 in /  1001.6 hPa NW 11.5 mph /  18.5 km/h 11.5 mph /  18.5 km/h 77 % 0.00 in /  0 mm 0.0 W/m2 CLR
00:55 44.1 °F /  6.7 °C 37.3 °F /  2.9 °C 29.58 in /  1001.6 hPa WNW 11.5 mph /  18.5 km/h 11.5 mph /  18.5 km/h 77 % 0.00 in /  0 mm 0.0 W/m2 CLR
01:00 44.1 °F /  6.7 °C 37.3 °F /  2.9 °C 29.58 in /  1001.6 hPa North 13.8 mph /  22.2 km/h 13.8 mph /  22.2 km/h 77 % 0.00 in /  0 mm 0.0 W/m2 CLR
01:05 44.1 °F /  6.7 °C 37.3 °F /  2.9 °C 29.58 in /  1001.6 hPa NW 11.5 mph /  18.5 km/h 11.5 mph /  18.5 km/h 77 % 0.00 in /  0 mm 0.0 W/m2 CLR
01:10 44.0 °F /  6.7 °C 37.3 °F /  2.9 °C 29.58 in /  1001.6 hPa WNW 11.5 mph /  18.5 km/h 11.5 mph /  18.5 km/h 77 % 0.00 in /  0 mm 0.0 W/m2 CLR
01:15 44.0 °F /  6.7 °C 37.3 °F /  2.9 °C 29.58 in /  1001.6 hPa NNW 11.5 mph /  18.5 km/h 11.5 mph /  18.5 km/h 77 % 0.00 in /  0 mm 0.0 W/m2 CLR
01:20 43.9 °F /  6.6 °C 37.2 °F /  2.9 °C 29.58 in /  1001.6 hPa North 11.5 mph /  18.5 km/h 11.5 mph /  18.5 km/h 77 % 0.00 in /  0 mm 0.0 W/m2 CLR
01:25 43.9 °F /  6.6 °C 37.2 °F /  2.9 °C 29.58 in /  1001.6 hPa NE 9.2 mph /  14.8 km/h 9.2 mph /  14.8 km/h 77 % 0.00 in /  0 mm 0.0 W/m2 CLR
01:30 43.8 °F /  6.6 °C 37.1 °F /  2.8 °C 29.58 in /  1001.6 hPa NW 11.5 mph /  18.5 km/h 11.5 mph /  18.5 km/h 77 % 0.00 in /  0 mm 0.0 W/m2 CLR
01:35 43.8 °F /  6.6 °C 37.1 °F /  2.8 °C 29.59 in /  1001.9 hPa NNE 4.6 mph /  7.4 km/h 4.6 mph /  7.4 km/h 77 % 0.00 in /  0 mm 0.0 W/m2 CLR
01:40 43.7 °F /  6.5 °C 37.3 °F /  2.9 °C 29.59 in /  1001.9 hPa North 4.6 mph /  7.4 km/h 4.6 mph /  7.4 km/h 78 % 0.00 in /  0 mm 0.0 W/m2 CLR
01:45 43.7 °F /  6.5 °C 37.3 °F /  2.9 °C 29.60 in /  1002.3 hPa NNE 5.8 mph /  9.3 km/h 5.8 mph /  9.3 km/h 78 % 0.00 in /  0 mm 0.0 W/m2 CLR
01:50 43.6 °F /  6.4 °C 37.2 °F /  2.9 °C 29.60 in /  1002.3 hPa NNE 2.3 mph /  3.7 km/h 2.3 mph /  3.7 km/h 78 % 0.00 in /  0 mm 0.0 W/m2 CLR
01:55 43.5 °F /  6.4 °C 37.1 °F /  2.8 °C 29.60 in /  1002.3 hPa NNW 3.5 mph /  5.6 km/h 3.5 mph /  5.6 km/h 78 % 0.00 in /  0 mm 0.0 W/m2 CLR
02:00 43.4 °F /  6.3 °C 37.3 °F /  2.9 °C 29.60 in /  1002.3 hPa NNE 4.6 mph /  7.4 km/h 4.6 mph /  7.4 km/h 79 % 0.00 in /  0 mm 0.0 W/m2 CLR
02:05 43.2 °F /  6.2 °C 37.1 °F /  2.8 °C 29.60 in /  1002.3 hPa NNW 5.8 mph /  9.3 km/h 5.8 mph /  9.3 km/h 79 % 0.00 in /  0 mm 0.0 W/m2 CLR
02:10 43.1 °F /  6.2 °C 37.3 °F /  2.9 °C 29.60 in /  1002.3 hPa NNW 5.0 mph /  8 km/h 5.0 mph /  8 km/h 80 % 0.00 in /  0 mm 0.0 W/m2 CLR
02:15 42.9 °F /  6.1 °C 37.2 °F /  2.9 °C 29.60 in /  1002.3 hPa NNW 3.5 mph /  5.6 km/h 3.5 mph /  5.6 km/h 80 % 0.00 in /  0 mm 0.0 W/m2 CLR
02:20 42.8 °F /  6 °C 37.1 °F /  2.8 °C 29.60 in /  1002.3 hPa NNW 3.5 mph /  5.6 km/h 3.5 mph /  5.6 km/h 80 % 0.00 in /  0 mm 0.0 W/m2 CLR
02:25 42.7 °F /  5.9 °C 37.3 °F /  2.9 °C 29.60 in /  1002.3 hPa NW 9.2 mph /  14.8 km/h 9.2 mph /  14.8 km/h 81 % 0.00 in /  0 mm 0.0 W/m2 CLR
02:30 42.6 °F /  5.9 °C 37.2 °F /  2.9 °C 29.60 in /  1002.3 hPa NE 9.2 mph /  14.8 km/h 9.2 mph /  14.8 km/h 81 % 0.00 in /  0 mm 0.0 W/m2 CLR
02:35 42.5 °F /  5.8 °C 37.1 °F /  2.8 °C 29.60 in /  1002.3 hPa WNW 11.5 mph /  18.5 km/h 11.5 mph /  18.5 km/h 81 % 0.00 in /  0 mm 0.0 W/m2 CLR
02:40 42.5 °F /  5.8 °C 37.1 °F /  2.8 °C 29.60 in /  1002.3 hPa North 8.1 mph /  13 km/h 8.1 mph /  13 km/h 81 % 0.00 in /  0 mm 0.0 W/m2 CLR
02:45 42.4 °F /  5.8 °C 37.0 °F /  2.8 °C 29.60 in /  1002.3 hPa NNW 11.5 mph /  18.5 km/h 11.5 mph /  18.5 km/h 81 % 0.00 in /  0 mm 0.0 W/m2 CLR
02:50 42.4 °F /  5.8 °C 37.0 °F /  2.8 °C 29.60 in /  1002.3 hPa WNW 8.1 mph /  13 km/h 8.1 mph /  13 km/h 81 % 0.00 in /  0 mm 0.0 W/m2 CLR
02:56 42.4 °F /  5.8 °C 37.0 °F /  2.8 °C 29.60 in /  1002.3 hPa NW 12.7 mph /  20.4 km/h 12.7 mph /  20.4 km/h 81 % 0.00 in /  0 mm 0.0 W/m2 CLR
03:01 42.5 °F /  5.8 °C 37.1 °F /  2.8 °C 29.60 in /  1002.3 hPa NNW 11.5 mph /  18.5 km/h 11.5 mph /  18.5 km/h 81 % 0.00 in /  0 mm 0.0 W/m2 CLR
03:06 42.5 °F /  5.8 °C 37.1 °F /  2.8 °C 29.60 in /  1002.3 hPa North 11.0 mph /  17.7 km/h 11.0 mph /  17.7 km/h 81 % 0.00 in /  0 mm 0.0 W/m2 CLR
03:11 42.5 °F /  5.8 °C 37.1 °F /  2.8 °C 29.60 in /  1002.3 hPa NNE 9.2 mph /  14.8 km/h 9.2 mph /  14.8 km/h 81 % 0.00 in /  0 mm 0.0 W/m2 CLR
03:16 42.5 °F /  5.8 °C 37.1 °F /  2.8 °C 29.60 in /  1002.3 hPa NNW 11.5 mph /  18.5 km/h 11.5 mph /  18.5 km/h 81 % 0.00 in /  0 mm 0.0 W/m2 CLR
03:21 42.5 °F /  5.8 °C 37.1 °F /  2.8 °C 29.60 in /  1002.3 hPa NNE 9.2 mph /  14.8 km/h 9.2 mph /  14.8 km/h 81 % 0.00 in /  0 mm 0.0 W/m2 CLR
03:26 42.5 °F /  5.8 °C 37.1 °F /  2.8 °C 29.60 in /  1002.3 hPa NNE 6.9 mph /  11.1 km/h 6.9 mph /  11.1 km/h 81 % 0.00 in /  0 mm 0.0 W/m2 CLR
03:31 42.5 °F /  5.8 °C 37.1 °F /  2.8 °C 29.60 in /  1002.3 hPa NNW 10.4 mph /  16.7 km/h 10.4 mph /  16.7 km/h 81 % 0.00 in /  0 mm 0.0 W/m2 FEW
03:36 42.5 °F /  5.8 °C 37.1 °F /  2.8 °C 29.59 in /  1001.9 hPa NNE 6.0 mph /  9.7 km/h 6.0 mph /  9.7 km/h 81 % 0.00 in /  0 mm 0.0 W/m2 FEW
03:41 42.5 °F /  5.8 °C 37.1 °F /  2.8 °C 29.59 in /  1001.9 hPa NNW 10.4 mph /  16.7 km/h 10.4 mph /  16.7 km/h 81 % 0.01 in /  0.25 mm 0.0 W/m2 RA
03:46 42.5 °F /  5.8 °C 37.1 °F /  2.8 °C 29.59 in /  1001.9 hPa NE 5.8 mph /  9.3 km/h 5.8 mph /  9.3 km/h 81 % 0.01 in /  0.25 mm 0.0 W/m2 FEW
03:51 42.5 °F /  5.8 °C 37.1 °F /  2.8 °C 29.60 in /  1002.3 hPa North 9.2 mph /  14.8 km/h 9.2 mph /  14.8 km/h 81 % 0.01 in /  0.25 mm 0.0 W/m2 FEW
03:56 42.4 °F /  5.8 °C 37.0 °F /  2.8 °C 29.60 in /  1002.3 hPa North 9.2 mph /  14.8 km/h 9.2 mph /  14.8 km/h 81 % 0.01 in /  0.25 mm 0.0 W/m2 FEW
04:01 42.5 °F /  5.8 °C 37.1 °F /  2.8 °C 29.60 in /  1002.3 hPa North 8.1 mph /  13 km/h 8.1 mph /  13 km/h 81 % 0.01 in /  0.25 mm 0.0 W/m2 FEW
04:06 42.5 °F /  5.8 °C 37.1 °F /  2.8 °C 29.60 in /  1002.3 hPa NE 6.0 mph /  9.7 km/h 6.0 mph /  9.7 km/h 81 % 0.01 in /  0.25 mm 0.0 W/m2 FEW
04:11 42.5 °F /  5.8 °C 37.1 °F /  2.8 °C 29.60 in /  1002.3 hPa NE 8.1 mph /  13 km/h 8.1 mph /  13 km/h 81 % 0.01 in /  0.25 mm 0.0 W/m2 FEW
04:16 42.5 °F /  5.8 °C 36.8 °F /  2.7 °C 29.60 in /  1002.3 hPa NNW 9.2 mph /  14.8 km/h 9.2 mph /  14.8 km/h 80 % 0.01 in /  0.25 mm 0.0 W/m2 FEW
04:21 42.5 °F /  5.8 °C 36.8 °F /  2.7 °C 29.59 in /  1001.9 hPa NNW 10.4 mph /  16.7 km/h 10.4 mph /  16.7 km/h 80 % 0.01 in /  0.25 mm 0.0 W/m2 FEW
04:26 42.5 °F /  5.8 °C 36.8 °F /  2.7 °C 29.59 in /  1001.9 hPa North 6.9 mph /  11.1 km/h 6.9 mph /  11.1 km/h 80 % 0.01 in /  0.25 mm 0.0 W/m2 FEW
04:31 42.5 °F /  5.8 °C 36.8 °F /  2.7 °C 29.59 in /  1001.9 hPa NNW 11.5 mph /  18.5 km/h 11.5 mph /  18.5 km/h 80 % 0.01 in /  0.25 mm 0.0 W/m2 FEW
04:36 42.4 °F /  5.8 °C 36.7 °F /  2.6 °C 29.59 in /  1001.9 hPa North 11.5 mph /  18.5 km/h 11.5 mph /  18.5 km/h 80 % 0.01 in /  0.25 mm 0.0 W/m2 FEW
04:41 42.4 °F /  5.8 °C 36.7 °F /  2.6 °C 29.59 in /  1001.9 hPa North 11.0 mph /  17.7 km/h 11.0 mph /  17.7 km/h 80 % 0.00 in /  0 mm 0.0 W/m2 FEW
04:46 42.4 °F /  5.8 °C 36.7 °F /  2.6 °C 29.59 in /  1001.9 hPa North 11.5 mph /  18.5 km/h 11.5 mph /  18.5 km/h 80 % 0.00 in /  0 mm 0.0 W/m2 FEW
04:51 42.4 °F /  5.8 °C 36.7 °F /  2.6 °C 29.59 in /  1001.9 hPa NNW 11.5 mph /  18.5 km/h 11.5 mph /  18.5 km/h 80 % 0.00 in /  0 mm 0.0 W/m2 FEW
04:56 42.4 °F /  5.8 °C 36.7 °F /  2.6 °C 29.59 in /  1001.9 hPa North 11.5 mph /  18.5 km/h 11.5 mph /  18.5 km/h 80 % 0.00 in /  0 mm 0.0 W/m2 FEW
05:01 42.3 °F /  5.7 °C 36.6 °F /  2.6 °C 29.59 in /  1001.9 hPa NNE 5.8 mph /  9.3 km/h 5.8 mph /  9.3 km/h 80 % 0.00 in /  0 mm 0.0 W/m2 FEW
05:06 42.2 °F /  5.7 °C 36.5 °F /  2.5 °C 29.59 in /  1001.9 hPa NNW 8.1 mph /  13 km/h 8.1 mph /  13 km/h 80 % 0.00 in /  0 mm 0.0 W/m2 FEW
05:11 42.2 °F /  5.7 °C 36.5 °F /  2.5 °C 29.59 in /  1001.9 hPa North 12.0 mph /  19.3 km/h 12.0 mph /  19.3 km/h 80 % 0.00 in /  0 mm 0.0 W/m2 FEW
05:16 42.1 °F /  5.6 °C 36.4 °F /  2.4 °C 29.59 in /  1001.9 hPa North 10.4 mph /  16.7 km/h 10.4 mph /  16.7 km/h 80 % 0.00 in /  0 mm 0.0 W/m2 FEW
05:21 42.1 °F /  5.6 °C 36.7 °F /  2.6 °C 29.59 in /  1001.9 hPa NE 9.2 mph /  14.8 km/h 9.2 mph /  14.8 km/h 81 % 0.00 in /  0 mm 0.0 W/m2 FEW
05:26 42.0 °F /  5.6 °C 36.6 °F /  2.6 °C 29.59 in /  1001.9 hPa NW 11.5 mph /  18.5 km/h 11.5 mph /  18.5 km/h 81 % 0.00 in /  0 mm 0.0 W/m2 FEW
05:31 42.0 °F /  5.6 °C 36.6 °F /  2.6 °C 29.59 in /  1001.9 hPa NNW 5.8 mph /  9.3 km/h 5.8 mph /  9.3 km/h 81 % 0.00 in /  0 mm 0.0 W/m2 FEW
05:36 42.1 °F /  5.6 °C 36.7 °F /  2.6 °C 29.59 in /  1001.9 hPa North 11.5 mph /  18.5 km/h 11.5 mph /  18.5 km/h 81 % 0.00 in /  0 mm 0.0 W/m2 FEW
05:41 42.1 °F /  5.6 °C 36.7 °F /  2.6 °C 29.59 in /  1001.9 hPa NW 9.0 mph /  14.5 km/h 9.0 mph /  14.5 km/h 81 % 0.00 in /  0 mm 0.0 W/m2 FEW
05:46 42.2 °F /  5.7 °C 36.8 °F /  2.7 °C 29.59 in /  1001.9 hPa NNW 12.0 mph /  19.3 km/h 12.0 mph /  19.3 km/h 81 % 0.00 in /  0 mm 0.0 W/m2 FEW
05:51 42.2 °F /  5.7 °C 36.8 °F /  2.7 °C 29.58 in /  1001.6 hPa NNW 11.5 mph /  18.5 km/h 11.5 mph /  18.5 km/h 81 % 0.00 in /  0 mm 0.0 W/m2 FEW
05:56 42.3 °F /  5.7 °C 36.9 °F /  2.7 °C 29.57 in /  1001.2 hPa NNE 15.0 mph /  24.1 km/h 15.0 mph /  24.1 km/h 81 % 0.00 in /  0 mm 0.0 W/m2 FEW
06:01 42.4 °F /  5.8 °C 36.7 °F /  2.6 °C 29.57 in /  1001.2 hPa NNE 12.7 mph /  20.4 km/h 12.7 mph /  20.4 km/h 80 % 0.00 in /  0 mm 0.0 W/m2 FEW
06:06 42.5 °F /  5.8 °C 36.8 °F /  2.7 °C 29.58 in /  1001.6 hPa NNE 11.5 mph /  18.5 km/h 11.5 mph /  18.5 km/h 80 % 0.00 in /  0 mm 0.0 W/m2 SCT
06:11 42.5 °F /  5.8 °C 36.8 °F /  2.7 °C 29.58 in /  1001.6 hPa NNE 11.5 mph /  18.5 km/h 11.5 mph /  18.5 km/h 80 % 0.00 in /  0 mm 0.0 W/m2 SCT
06:16 42.5 °F /  5.8 °C 36.8 °F /  2.7 °C 29.58 in /  1001.6 hPa North 10.4 mph /  16.7 km/h 10.4 mph /  16.7 km/h 80 % 0.00 in /  0 mm 0.0 W/m2 SCT
06:21 42.5 °F /  5.8 °C 36.8 °F /  2.7 °C 29.58 in /  1001.6 hPa North 11.5 mph /  18.5 km/h 11.5 mph /  18.5 km/h 80 % 0.00 in /  0 mm 0.0 W/m2 SCT
06:26 42.5 °F /  5.8 °C 36.8 °F /  2.7 °C 29.57 in /  1001.2 hPa NNE 18.4 mph /  29.6 km/h 18.4 mph /  29.6 km/h 80 % 0.00 in /  0 mm 0.0 W/m2 SCT
06:31 42.5 °F /  5.8 °C 36.8 °F /  2.7 °C 29.57 in /  1001.2 hPa NW 18.0 mph /  29 km/h 18.0 mph /  29 km/h 80 % 0.00 in /  0 mm 0.0 W/m2 SCT
06:36 42.6 °F /  5.9 °C 36.9 °F /  2.7 °C 29.58 in /  1001.6 hPa NNW 17.3 mph /  27.8 km/h 17.3 mph /  27.8 km/h 80 % 0.00 in /  0 mm 0.0 W/m2 SCT
06:41 42.6 °F /  5.9 °C 36.9 °F /  2.7 °C 29.57 in /  1001.2 hPa North 15.0 mph /  24.1 km/h 15.0 mph /  24.1 km/h 80 % 0.00 in /  0 mm 0.0 W/m2 SCT
06:46 42.6 °F /  5.9 °C 36.5 °F /  2.5 °C 29.57 in /  1001.2 hPa NNW 11.5 mph /  18.5 km/h 11.5 mph /  18.5 km/h 79 % 0.00 in /  0 mm 0.0 W/m2 FEW
06:51 42.7 °F /  5.9 °C 36.6 °F /  2.6 °C 29.57 in /  1001.2 hPa North 18.4 mph /  29.6 km/h 18.4 mph /  29.6 km/h 79 % 0.00 in /  0 mm 0.0 W/m2 FEW
06:56 42.7 °F /  5.9 °C 36.6 °F /  2.6 °C 29.57 in /  1001.2 hPa NNW 15.0 mph /  24.1 km/h 15.0 mph /  24.1 km/h 79 % 0.00 in /  0 mm 0.0 W/m2 FEW
07:01 42.8 °F /  6 °C 36.7 °F /  2.6 °C 29.58 in /  1001.6 hPa NNW 20.7 mph /  33.3 km/h 20.7 mph /  33.3 km/h 79 % 0.00 in /  0 mm 0.0 W/m2 FEW
07:06 42.8 °F /  6 °C 36.7 °F /  2.6 °C 29.59 in /  1001.9 hPa WNW 11.5 mph /  18.5 km/h 11.5 mph /  18.5 km/h 79 % 0.00 in /  0 mm 0.0 W/m2 FEW
07:11 42.9 °F /  6.1 °C 36.5 °F /  2.5 °C 29.60 in /  1002.3 hPa West 11.5 mph /  18.5 km/h 11.5 mph /  18.5 km/h 78 % 0.00 in /  0 mm 0.0 W/m2 FEW
07:16 42.9 °F /  6.1 °C 36.5 °F /  2.5 °C 29.60 in /  1002.3 hPa NNW 15.0 mph /  24.1 km/h 15.0 mph /  24.1 km/h 78 % 0.00 in /  0 mm 0.0 W/m2 FEW
07:21 42.9 °F /  6.1 °C 36.5 °F /  2.5 °C 29.61 in /  1002.6 hPa WNW 12.7 mph /  20.4 km/h 12.7 mph /  20.4 km/h 78 % 0.00 in /  0 mm 0.0 W/m2 FEW
07:26 42.9 °F /  6.1 °C 36.5 °F /  2.5 °C 29.61 in /  1002.6 hPa West 16.1 mph /  25.9 km/h 16.1 mph /  25.9 km/h 78 % 0.00 in /  0 mm 5.0 W/m2 FEW
07:31 42.9 °F /  6.1 °C 36.5 °F /  2.5 °C 29.62 in /  1002.9 hPa WNW 16.1 mph /  25.9 km/h 16.1 mph /  25.9 km/h 78 % 0.00 in /  0 mm 7.0 W/m2 FEW
07:36 42.8 °F /  6 °C 36.4 °F /  2.4 °C 29.62 in /  1002.9 hPa WNW 19.6 mph /  31.5 km/h 19.6 mph /  31.5 km/h 78 % 0.00 in /  0 mm 11.0 W/m2 FEW
07:41 42.9 °F /  6.1 °C 36.5 °F /  2.5 °C 29.63 in /  1003.3 hPa NNW 16.1 mph /  25.9 km/h 16.1 mph /  25.9 km/h 78 % 0.00 in /  0 mm 16.0 W/m2 FEW
07:46 42.9 °F /  6.1 °C 36.5 °F /  2.5 °C 29.63 in /  1003.3 hPa WNW 14.0 mph /  22.5 km/h 14.0 mph /  22.5 km/h 78 % 0.00 in /  0 mm 16.0 W/m2 SCT
07:51 42.9 °F /  6.1 °C 36.8 °F /  2.7 °C 29.64 in /  1003.6 hPa NNW 13.8 mph /  22.2 km/h 13.8 mph /  22.2 km/h 79 % 0.00 in /  0 mm 18.0 W/m2 SCT
07:56 42.9 °F /  6.1 °C 36.8 °F /  2.7 °C 29.64 in /  1003.6 hPa NW 15.0 mph /  24.1 km/h 15.0 mph /  24.1 km/h 79 % 0.00 in /  0 mm 23.0 W/m2 SCT
08:01 42.9 °F /  6.1 °C 36.8 °F /  2.7 °C 29.64 in /  1003.6 hPa NW 9.2 mph /  14.8 km/h 9.2 mph /  14.8 km/h 79 % 0.00 in /  0 mm 25.0 W/m2 SCT
08:06 42.9 °F /  6.1 °C 36.8 °F /  2.7 °C 29.64 in /  1003.6 hPa NW 12.0 mph /  19.3 km/h 12.0 mph /  19.3 km/h 79 % 0.00 in /  0 mm 37.0 W/m2 SCT
08:11 42.9 °F /  6.1 °C 36.8 °F /  2.7 °C 29.64 in /  1003.6 hPa NNW 15.0 mph /  24.1 km/h 15.0 mph /  24.1 km/h 79 % 0.00 in /  0 mm 60.0 W/m2 SCT
08:16 43.1 °F /  6.2 °C 37.0 °F /  2.8 °C 29.64 in /  1003.6 hPa NW 13.8 mph /  22.2 km/h 13.8 mph /  22.2 km/h 79 % 0.00 in /  0 mm 81.0 W/m2 SCT
08:21 43.2 °F /  6.2 °C 37.1 °F /  2.8 °C 29.64 in /  1003.6 hPa NNW 12.7 mph /  20.4 km/h 12.7 mph /  20.4 km/h 79 % 0.00 in /  0 mm 77.0 W/m2 SCT
08:26 43.5 °F /  6.4 °C 37.4 °F /  3 °C 29.64 in /  1003.6 hPa NNW 15.0 mph /  24.1 km/h 15.0 mph /  24.1 km/h 79 % 0.00 in /  0 mm 76.0 W/m2 SCT
08:31 43.8 °F /  6.6 °C 37.7 °F /  3.2 °C 29.63 in /  1003.3 hPa NNE 16.1 mph /  25.9 km/h 16.1 mph /  25.9 km/h 79 % 0.00 in /  0 mm 109.0 W/m2 SCT
08:36 44.1 °F /  6.7 °C 37.7 °F /  3.2 °C 29.63 in /  1003.3 hPa NNW 13.0 mph /  20.9 km/h 13.0 mph /  20.9 km/h 78 % 0.00 in /  0 mm 125.0 W/m2 SCT
08:41 44.4 °F /  6.9 °C 38.0 °F /  3.3 °C 29.63 in /  1003.3 hPa NW 15.0 mph /  24.1 km/h 15.0 mph /  24.1 km/h 78 % 0.00 in /  0 mm 123.0 W/m2 SCT
08:46 44.6 °F /  7 °C 37.8 °F /  3.2 °C 29.63 in /  1003.3 hPa NE 11.5 mph /  18.5 km/h 11.5 mph /  18.5 km/h 77 % 0.00 in /  0 mm 120.0 W/m2 BKN
08:51 44.8 °F /  7.1 °C 38.0 °F /  3.3 °C 29.63 in /  1003.3 hPa NW 12.7 mph /  20.4 km/h 12.7 mph /  20.4 km/h 77 % 0.00 in /  0 mm 120.0 W/m2 BKN
08:56 44.9 °F /  7.2 °C 37.8 °F /  3.2 °C 29.64 in /  1003.6 hPa WNW 13.8 mph /  22.2 km/h 13.8 mph /  22.2 km/h 76 % 0.00 in /  0 mm 107.0 W/m2 BKN
09:01 45.1 °F /  7.3 °C 37.6 °F /  3.1 °C 29.64 in /  1003.6 hPa NNW 13.8 mph /  22.2 km/h 13.8 mph /  22.2 km/h 75 % 0.00 in /  0 mm 74.0 W/m2 RA
09:07 45.2 °F /  7.3 °C 37.7 °F /  3.2 °C 29.65 in /  1003.9 hPa NW 13.0 mph /  20.9 km/h 13.0 mph /  20.9 km/h 75 % 0.00 in /  0 mm 58.0 W/m2 BKN
09:12 45.3 °F /  7.4 °C 37.5 °F /  3.1 °C 29.65 in /  1003.9 hPa NNW 12.7 mph /  20.4 km/h 12.7 mph /  20.4 km/h 74 % 0.00 in /  0 mm 84.0 W/m2 BKN
09:17 45.3 °F /  7.4 °C 37.5 °F /  3.1 °C 29.65 in /  1003.9 hPa NNW 11.5 mph /  18.5 km/h 11.5 mph /  18.5 km/h 74 % 0.00 in /  0 mm 91.0 W/m2 BKN
09:22 45.4 °F /  7.4 °C 37.6 °F /  3.1 °C 29.65 in /  1003.9 hPa NW 12.0 mph /  19.3 km/h 12.0 mph /  19.3 km/h 74 % 0.00 in /  0 mm 98.0 W/m2 BKN
09:27 45.4 °F /  7.4 °C 37.6 °F /  3.1 °C 29.65 in /  1003.9 hPa NNW 11.5 mph /  18.5 km/h 11.5 mph /  18.5 km/h 74 % 0.00 in /  0 mm 144.0 W/m2 BKN
09:32 45.5 °F /  7.5 °C 37.7 °F /  3.2 °C 29.64 in /  1003.6 hPa NNW 11.5 mph /  18.5 km/h 11.5 mph /  18.5 km/h 74 % 0.00 in /  0 mm 142.0 W/m2 BKN
09:37 45.6 °F /  7.6 °C 37.8 °F /  3.2 °C 29.64 in /  1003.6 hPa NNW 15.0 mph /  24.1 km/h 15.0 mph /  24.1 km/h 74 % 0.00 in /  0 mm 123.0 W/m2 BKN
09:42 45.8 °F /  7.7 °C 38.0 °F /  3.3 °C 29.65 in /  1003.9 hPa NNW 11.5 mph /  18.5 km/h 11.5 mph /  18.5 km/h 74 % 0.00 in /  0 mm 260.0 W/m2 BKN
09:47 46.0 °F /  7.8 °C 38.2 °F /  3.4 °C 29.66 in /  1004.3 hPa NNW 11.5 mph /  18.5 km/h 11.5 mph /  18.5 km/h 74 % 0.00 in /  0 mm 185.0 W/m2 BKN
09:52 46.3 °F /  7.9 °C 38.5 °F /  3.6 °C 29.67 in /  1004.6 hPa West 12.7 mph /  20.4 km/h 12.7 mph /  20.4 km/h 74 % 0.00 in /  0 mm 223.0 W/m2 BKN
09:57 46.6 °F /  8.1 °C 38.4 °F /  3.6 °C 29.67 in /  1004.6 hPa NNW 9.2 mph /  14.8 km/h 9.2 mph /  14.8 km/h 73 % 0.00 in /  0 mm 144.0 W/m2 BKN
10:02 46.7 °F /  8.2 °C 38.5 °F /  3.6 °C 29.67 in /  1004.6 hPa WNW 9.2 mph /  14.8 km/h 9.2 mph /  14.8 km/h 73 % 0.00 in /  0 mm 123.0 W/m2 BKN
10:07 46.8 °F /  8.2 °C 38.2 °F /  3.4 °C 29.67 in /  1004.6 hPa NW 12.7 mph /  20.4 km/h 12.7 mph /  20.4 km/h 72 % 0.00 in /  0 mm 192.0 W/m2 BKN
10:12 47.0 °F /  8.3 °C 38.4 °F /  3.6 °C 29.67 in /  1004.6 hPa WNW 12.7 mph /  20.4 km/h 12.7 mph /  20.4 km/h 72 % 0.00 in /  0 mm 174.0 W/m2 BKN
10:17 47.2 °F /  8.4 °C 38.3 °F /  3.5 °C 29.67 in /  1004.6 hPa NW 10.4 mph /  16.7 km/h 10.4 mph /  16.7 km/h 71 % 0.00 in /  0 mm 225.0 W/m2 BKN
10:22 47.3 °F /  8.5 °C 38.4 °F /  3.6 °C 29.67 in /  1004.6 hPa North 10.4 mph /  16.7 km/h 10.4 mph /  16.7 km/h 71 % 0.00 in /  0 mm 158.0 W/m2 BKN
10:27 47.6 °F /  8.7 °C 38.3 °F /  3.5 °C 29.67 in /  1004.6 hPa WNW 13.8 mph /  22.2 km/h 13.8 mph /  22.2 km/h 70 % 0.00 in /  0 mm 195.0 W/m2 BKN
10:32 48.0 °F /  8.9 °C 38.3 °F /  3.5 °C 29.67 in /  1004.6 hPa NNW 11.5 mph /  18.5 km/h 11.5 mph /  18.5 km/h 69 % 0.00 in /  0 mm 195.0 W/m2 BKN
10:37 48.4 °F /  9.1 °C 38.7 °F /  3.7 °C 29.67 in /  1004.6 hPa NW 8.1 mph /  13 km/h 8.1 mph /  13 km/h 69 % 0.00 in /  0 mm 281.0 W/m2 BKN
10:42 48.5 °F /  9.2 °C 38.4 °F /  3.6 °C 29.68 in /  1005 hPa NNW 15.0 mph /  24.1 km/h 15.0 mph /  24.1 km/h 68 % 0.00 in /  0 mm 202.0 W/m2 BKN
10:47 48.5 °F /  9.2 °C 38.8 °F /  3.8 °C 29.67 in /  1004.6 hPa WNW 8.1 mph /  13 km/h 8.1 mph /  13 km/h 69 % 0.00 in /  0 mm 141.0 W/m2 BKN
10:52 48.5 °F /  9.2 °C 38.4 °F /  3.6 °C 29.67 in /  1004.6 hPa WNW 19.6 mph /  31.5 km/h 19.6 mph /  31.5 km/h 68 % 0.00 in /  0 mm 262.0 W/m2 BKN
10:57 49.2 °F /  9.6 °C 38.7 °F /  3.7 °C 29.68 in /  1005 hPa NW 12.7 mph /  20.4 km/h 12.7 mph /  20.4 km/h 67 % 0.00 in /  0 mm 234.0 W/m2 BKN
11:02 49.4 °F /  9.7 °C 38.9 °F /  3.8 °C 29.68 in /  1005 hPa West 12.7 mph /  20.4 km/h 12.7 mph /  20.4 km/h 67 % 0.00 in /  0 mm 330.0 W/m2 BKN
11:07 49.4 °F /  9.7 °C 38.9 °F /  3.8 °C 29.68 in /  1005 hPa WSW 10.4 mph /  16.7 km/h 10.4 mph /  16.7 km/h 67 % 0.00 in /  0 mm 213.0 W/m2 BKN
11:12 49.4 °F /  9.7 °C 38.1 °F /  3.4 °C 29.68 in /  1005 hPa NNW 20.0 mph /  32.2 km/h 20.0 mph /  32.2 km/h 65 % 0.00 in /  0 mm 206.0 W/m2 BKN
11:17 49.1 °F /  9.5 °C 37.8 °F /  3.2 °C 29.68 in /  1005 hPa WNW 19.6 mph /  31.5 km/h 19.6 mph /  31.5 km/h 65 % 0.00 in /  0 mm 97.0 W/m2 BKN
11:22 48.9 °F /  9.4 °C 37.6 °F /  3.1 °C 29.68 in /  1005 hPa NW 11.5 mph /  18.5 km/h 11.5 mph /  18.5 km/h 65 % 0.00 in /  0 mm 83.0 W/m2 BKN
11:27 48.7 °F /  9.3 °C 37.8 °F /  3.2 °C 29.68 in /  1005 hPa West 13.0 mph /  20.9 km/h 13.0 mph /  20.9 km/h 66 % 0.00 in /  0 mm 63.0 W/m2 BKN
11:32 48.5 °F /  9.2 °C 38.4 °F /  3.6 °C 29.69 in /  1005.3 hPa West 14.0 mph /  22.5 km/h 14.0 mph /  22.5 km/h 68 % 0.00 in /  0 mm 74.0 W/m2 BKN
11:37 48.3 °F /  9.1 °C 38.2 °F /  3.4 °C 29.69 in /  1005.3 hPa West 13.8 mph /  22.2 km/h 13.8 mph /  22.2 km/h 68 % 0.00 in /  0 mm 91.0 W/m2 BKN
11:42 48.2 °F /  9 °C 38.1 °F /  3.4 °C 29.69 in /  1005.3 hPa NW 20.7 mph /  33.3 km/h 20.7 mph /  33.3 km/h 68 % 0.00 in /  0 mm 142.0 W/m2 BKN
11:47 48.1 °F /  8.9 °C 38.8 °F /  3.8 °C 29.69 in /  1005.3 hPa WSW 15.0 mph /  24.1 km/h 15.0 mph /  24.1 km/h 70 % 0.00 in /  0 mm 116.0 W/m2 -RA
11:52 47.6 °F /  8.7 °C 39.0 °F /  3.9 °C 29.70 in /  1005.6 hPa WSW 11.5 mph /  18.5 km/h 11.5 mph /  18.5 km/h 72 % 0.00 in /  0 mm 67.0 W/m2 -RA
11:57 47.2 °F /  8.4 °C 39.3 °F /  4.1 °C 29.70 in /  1005.6 hPa WSW 26.5 mph /  42.6 km/h 26.5 mph /  42.6 km/h 74 % 0.00 in /  0 mm 250.0 W/m2 -RA
12:02 46.9 °F /  8.3 °C 39.4 °F /  4.1 °C 29.70 in /  1005.6 hPa West 23.0 mph /  37 km/h 23.0 mph /  37 km/h 75 % 0.00 in /  0 mm 72.0 W/m2 -RA
12:07 46.2 °F /  7.9 °C 39.4 °F /  4.1 °C 29.70 in /  1005.6 hPa SW 10.4 mph /  16.7 km/h 10.4 mph /  16.7 km/h 77 % 0.01 in /  0.25 mm 90.0 W/m2 -RA
12:12 45.7 °F /  7.6 °C 39.6 °F /  4.2 °C 29.71 in /  1006 hPa West 20.7 mph /  33.3 km/h 20.7 mph /  33.3 km/h 79 % 0.01 in /  0.25 mm 160.0 W/m2 -RA
12:17 44.8 °F /  7.1 °C 39.3 °F /  4.1 °C 29.72 in /  1006.3 hPa WSW 25.3 mph /  40.7 km/h 25.3 mph /  40.7 km/h 81 % 0.01 in /  0.25 mm 207.0 W/m2 SCT
12:22 44.6 °F /  7 °C 39.8 °F /  4.3 °C 29.72 in /  1006.3 hPa WSW 18.4 mph /  29.6 km/h 18.4 mph /  29.6 km/h 83 % 0.01 in /  0.25 mm 225.0 W/m2 SCT
12:27 44.6 °F /  7 °C 39.8 °F /  4.3 °C 29.72 in /  1006.3 hPa West 11.5 mph /  18.5 km/h 11.5 mph /  18.5 km/h 83 % 0.01 in /  0.25 mm 190.0 W/m2 SCT
12:32 44.7 °F /  7.1 °C 39.9 °F /  4.4 °C 29.72 in /  1006.3 hPa West 16.0 mph /  25.7 km/h 16.0 mph /  25.7 km/h 83 % 0.01 in /  0.25 mm 186.0 W/m2 SCT
12:37 44.9 °F /  7.2 °C 39.7 °F /  4.3 °C 29.73 in /  1006.7 hPa SW 13.8 mph /  22.2 km/h 13.8 mph /  22.2 km/h 82 % 0.01 in /  0.25 mm 241.0 W/m2 SCT
12:42 45.4 °F /  7.4 °C 40.2 °F /  4.6 °C 29.73 in /  1006.7 hPa SW 16.1 mph /  25.9 km/h 16.1 mph /  25.9 km/h 82 % 0.01 in /  0.25 mm 339.0 W/m2 SCT
12:47 45.8 °F /  7.7 °C 40.3 °F /  4.6 °C 29.73 in /  1006.7 hPa WSW 20.7 mph /  33.3 km/h 20.7 mph /  33.3 km/h 81 % 0.01 in /  0.25 mm 192.0 W/m2 SCT
12:52 46.1 °F /  7.8 °C 39.9 °F /  4.4 °C 29.73 in /  1006.7 hPa WNW 18.4 mph /  29.6 km/h 18.4 mph /  29.6 km/h 79 % 0.01 in /  0.25 mm 132.0 W/m2 SCT
12:57 46.1 °F /  7.8 °C 40.3 °F /  4.6 °C 29.73 in /  1006.7 hPa SW 18.4 mph /  29.6 km/h 18.4 mph /  29.6 km/h 80 % 0.01 in /  0.25 mm 172.0 W/m2 SCT
13:02 46.1 °F /  7.8 °C 40.3 °F /  4.6 °C 29.74 in /  1007 hPa SW 16.1 mph /  25.9 km/h 16.1 mph /  25.9 km/h 80 % 0.01 in /  0.25 mm 257.0 W/m2 SCT
13:07 46.3 °F /  7.9 °C 40.5 °F /  4.7 °C 29.74 in /  1007 hPa NW 15.0 mph /  24.1 km/h 15.0 mph /  24.1 km/h 80 % 0.00 in /  0 mm 374.0 W/m2 SCT
13:12 46.7 °F /  8.2 °C 40.5 °F /  4.7 °C 29.74 in /  1007 hPa WSW 11.5 mph /  18.5 km/h 11.5 mph /  18.5 km/h 79 % 0.00 in /  0 mm 230.0 W/m2 SCT
13:17 47.0 °F /  8.3 °C 40.5 °F /  4.7 °C 29.74 in /  1007 hPa WSW 15.0 mph /  24.1 km/h 15.0 mph /  24.1 km/h 78 % 0.00 in /  0 mm 279.0 W/m2 SCT
13:22 47.3 °F /  8.5 °C 40.8 °F /  4.9 °C 29.75 in /  1007.3 hPa WSW 16.0 mph /  25.7 km/h 16.0 mph /  25.7 km/h 78 % 0.00 in /  0 mm 114.0 W/m2 SCT
13:27 47.3 °F /  8.5 °C 40.5 °F /  4.7 °C 29.75 in /  1007.3 hPa WSW 20.7 mph /  33.3 km/h 20.7 mph /  33.3 km/h 77 % 0.00 in /  0 mm 58.0 W/m2 SCT
13:32 46.7 °F /  8.2 °C 39.5 °F /  4.2 °C 29.75 in /  1007.3 hPa SW 10.4 mph /  16.7 km/h 10.4 mph /  16.7 km/h 76 % 0.00 in /  0 mm 47.0 W/m2 SCT
13:37 46.4 °F /  8 °C 39.9 °F /  4.4 °C 29.76 in /  1007.7 hPa SW 11.5 mph /  18.5 km/h 11.5 mph /  18.5 km/h 78 % 0.01 in /  0.25 mm 148.0 W/m2 RA
Melbourne Forecast
About Melbourne | City of Melbourne official website